Buoy 52514

sailwx.info

Track history (hours):
 
Tides and Currents Weather Stations Pressure Air Temp Water Temp Dewpoint Dewpoint Depression Visibility Wind Speed Wind Dir Waves Ship Positions

Drifting buoy 52514

Last reported at 2014-Oct-30 08:00 UTC. Time now 2014-Oct-30 12:15 UTC.
Position N 24°42' E 132°33'.

Water temperature 26.5 ° C

Date/timePositionNaut miles runAvg speedWind from/ knotsBaromVisibWave heightAir tempDewpointWater temp
2014-Oct-30 08:00N 24°42' E 132°33'1 0.6 26.5
2014-Oct-30 07:00N 24°41' E 132°33'1 0.6 26.5
2014-Oct-30 05:00N 24°42' E 132°31'1 0.2 26.6
2014-Oct-29 23:00N 24°43' E 132°30'1 0.6 26.5
2014-Oct-29 21:00N 24°44' E 132°31'1 0.6 26.5
2014-Oct-29 20:00N 24°44' E 132°30'0 0.0 26.5
2014-Oct-29 19:00N 24°44' E 132°30'2 0.9 26.5
2014-Oct-29 17:00N 24°46' E 132°30'0 0.0 26.5
2014-Oct-29 16:00N 24°46' E 132°30'5 1.3 26.5
2014-Oct-29 12:00N 24°50' E 132°26'0 0.5 25.1
2014-Oct-29 11:00N 24°50' E 132°25'5 0.7 25.1
2014-Oct-29 03:00N 24°53' E 132°20'2 0.8 18.0
2014-Oct-29 01:00N 24°55' E 132°20'0 0.0 17.9
2014-Oct-29 00:00N 24°55' E 132°20'0 0.0 18.1
2014-Oct-28 22:00N 24°55' E 132°20'0 0.0 23.2
2014-Oct-28 21:00N 24°55' E 132°20'3 0.6 23.4
2014-Oct-28 16:00N 24°56' E 132°17'3 0.9 25.7
2014-Oct-28 12:00N 24°57' E 132°13'2 0.6 26.4
2014-Oct-28 08:00N 24°59' E 132°11'2 1.5 26.5
2014-Oct-28 07:00N 24°59' E 132°09'0 0.0 26.7
2014-Oct-28 05:00N 24°59' E 132°09'2 0.8 26.7
2014-Oct-28 03:00N 24°59' E 132°08'4 0.6 26.7
2014-Oct-27 20:00N 24°60' E 132°03'2 0.8 26.7
2014-Oct-27 18:00N 24°59' E 132°02'0 0.5 26.7
2014-Oct-27 17:00N 24°59' E 132°01'0 0.0 26.8
2014-Oct-27 16:00N 24°59' E 132°01'0 0.0 26.8
2014-Oct-27 15:00N 24°59' E 132°01'4 1.0 26.8
2014-Oct-27 11:00N 25°00' E 131°57'1 0.3 27.0
2014-Oct-27 08:00N 25°00' E 131°56'2 2.2 27.1
2014-Oct-27 07:00N 24°60' E 131°54'0 0.0 27.1
2014-Oct-27 05:00N 24°60' E 131°54'1 0.6 27.4
2014-Oct-27 04:00N 24°59' E 131°54'5 0.7 27.5
2014-Oct-26 21:00N 24°60' E 131°49'1 0.8 26.8
2014-Oct-26 20:00N 24°59' E 131°48'1 1.4 26.7
2014-Oct-26 19:00N 24°59' E 131°46'0 0.0 26.7
2014-Oct-26 18:00N 24°59' E 131°46'1 0.6 26.7
2014-Oct-26 16:00N 24°58' E 131°46'0 0.0 26.7
2014-Oct-26 15:00N 24°58' E 131°46'2 0.9 26.7
2014-Oct-26 13:00N 24°56' E 131°46'0 0.1 26.8
2014-Oct-26 11:00N 24°56' E 131°46'1 0.9 26.8
2014-Oct-26 10:00N 24°56' E 131°45'1 0.3 26.8
2014-Oct-26 08:00N 24°56' E 131°45'1 0.6 26.9
2014-Oct-26 07:00N 24°56' E 131°44'0 0.0 27.0
2014-Oct-26 06:00N 24°56' E 131°44'0 0.4 27.1
2014-Oct-26 05:00N 24°56' E 131°44'0 0.4 26.9
2014-Oct-26 04:00N 24°55' E 131°44'0 0.1 26.9
2014-Oct-26 01:00N 24°55' E 131°44'1 0.2 26.7
2014-Oct-25 21:00N 24°55' E 131°43'0 0.4 26.6
2014-Oct-25 20:00N 24°55' E 131°43'1 0.7 26.6
2014-Oct-25 19:00N 24°55' E 131°42'1 0.3 26.6
2014-Oct-25 16:00N 24°54' E 131°42'3 1.0 26.7
2014-Oct-25 13:00N 24°51' E 131°41'1 0.8 26.7
2014-Oct-25 12:00N 24°51' E 131°42'0 0.0 26.7
2014-Oct-25 11:00N 24°51' E 131°42'1 0.6 26.7
2014-Oct-25 09:00N 24°50' E 131°41'0 0.4 26.8
2014-Oct-25 08:00N 24°50' E 131°41'1 0.6 26.8
2014-Oct-25 06:00N 24°49' E 131°41'1 1.3 26.9
2014-Oct-25 05:00N 24°48' E 131°42'0 0.4 26.9
2014-Oct-25 04:00N 24°48' E 131°42'2 1.1 26.9
2014-Oct-25 02:00N 24°47' E 131°44'0 0.1 26.8
2014-Oct-25 01:00N 24°47' E 131°44'0 0.0 26.7
2014-Oct-25 00:00N 24°47' E 131°44'1 0.4 26.7
2014-Oct-24 22:00N 24°46' E 131°43'0 0.0 26.6
2014-Oct-24 21:00N 24°46' E 131°43'1 0.6 26.7
2014-Oct-24 19:00N 24°46' E 131°42'0 0.1 26.7
2014-Oct-24 18:00N 24°46' E 131°42'1 1.4 26.7
2014-Oct-24 17:00N 24°45' E 131°41'3 0.5 26.7
2014-Oct-24 12:00N 24°43' E 131°40'1 0.8 26.8
2014-Oct-24 11:00N 24°42' E 131°41'1 0.3 26.8
2014-Oct-24 09:00N 24°42' E 131°41'0 0.4 26.9
2014-Oct-24 08:00N 24°42' E 131°41'1 0.6 26.9
2014-Oct-24 06:00N 24°40' E 131°41'2 0.9 26.9
2014-Oct-24 04:00N 24°42' E 131°42'2 0.5 26.9
2014-Oct-24 00:00N 24°40' E 131°43'1 0.4 26.8
2014-Oct-23 20:00N 24°39' E 131°42'1 0.9 26.7
2014-Oct-23 19:00N 24°38' E 131°41'0 0.0 26.7
2014-Oct-23 18:00N 24°38' E 131°41'0 0.1 26.7
2014-Oct-23 17:00N 24°39' E 131°41'2 0.3 26.7
2014-Oct-23 12:00N 24°38' E 131°42'0 0.0 26.8
2014-Oct-23 11:00N 24°38' E 131°42'0 0.0 26.9
2014-Oct-23 10:00N 24°38' E 131°42'3 1.3 27.0
2014-Oct-23 08:00N 24°35' E 131°43'1 0.4 27.0
2014-Oct-23 04:00N 24°34' E 131°43'1 0.6 27.0
2014-Oct-23 02:00N 24°33' E 131°44'0 0.0 27.0
2014-Oct-23 01:00N 24°33' E 131°44'1 1.0 26.9
2014-Oct-23 00:00N 24°33' E 131°43'0 0.0 26.9
2014-Oct-22 23:00N 24°33' E 131°43'0 0.0 26.8
2014-Oct-22 22:00N 24°33' E 131°43'0 0.5 26.8
2014-Oct-22 21:00N 24°33' E 131°43'0 0.0 26.8
2014-Oct-22 20:00N 24°33' E 131°43'0 0.4 26.8
2014-Oct-22 19:00N 24°33' E 131°43'1 0.5 26.9
2014-Oct-22 16:00N 24°31' E 131°42'3 0.7 26.9
2014-Oct-22 11:00N 24°29' E 131°40'0 0.2 27.1
2014-Oct-22 09:00N 24°29' E 131°39'1 0.8 27.2
2014-Oct-22 08:00N 24°28' E 131°39'0 0.3 27.7
2014-Oct-22 07:00N 24°28' E 131°39'0 0.0 28.0
2014-Oct-22 06:00N 24°28' E 131°39'3 1.5 27.9
2014-Oct-22 04:00N 24°25' E 131°40'0 0.1 27.5
2014-Oct-22 02:00N 24°25' E 131°40'0 0.0 27.0
2014-Oct-22 01:00N 24°25' E 131°40'0 0.4 26.8
2014-Oct-22 00:00N 24°25' E 131°40'0 0.0 26.7
2014-Oct-21 23:00N 24°25' E 131°40'2 0.5 26.6
2014-Oct-21 20:00N 24°25' E 131°38'0 0.2 26.7
2014-Oct-21 19:00N 24°25' E 131°38'5 2.4 26.7
2014-Oct-21 17:00N 24°22' E 131°34'0 0.0 26.7
2014-Oct-21 16:00N 24°22' E 131°34'0 0.0 26.7
2014-Oct-21 13:00N 24°22' E 131°34'1 0.9 26.7
2014-Oct-21 12:00N 24°22' E 131°33'1 0.6 26.7
2014-Oct-21 11:00N 24°22' E 131°32'1 0.5 26.9
2014-Oct-21 09:00N 24°21' E 131°33'1 0.6 27.0
2014-Oct-21 08:00N 24°20' E 131°32'2 0.8 27.1
2014-Oct-21 05:00N 24°19' E 131°34'3 0.7 27.5
2014-Oct-21 01:00N 24°17' E 131°32'1 1.1 26.7
2014-Oct-21 00:00N 24°18' E 131°31'1 0.5 26.6
2014-Oct-20 23:00N 24°18' E 131°31'0 0.0 26.5
2014-Oct-20 22:00N 24°18' E 131°31'0 0.2 26.5
2014-Oct-20 20:00N 24°18' E 131°30'1 0.5 26.6
2014-Oct-20 19:00N 24°18' E 131°30'2 1.0 26.7
2014-Oct-20 17:00N 24°18' E 131°28'0 0.0 26.7
2014-Oct-20 16:00N 24°18' E 131°28'6 1.4 26.7
2014-Oct-20 12:00N 24°15' E 131°22'1 0.8 26.4
2014-Oct-20 11:00N 24°15' E 131°21'1 1.1 26.4
2014-Oct-20 10:00N 24°15' E 131°20'0 0.0 26.4
2014-Oct-20 09:00N 24°15' E 131°20'1 0.7 26.4
2014-Oct-20 08:00N 24°14' E 131°20'   26.5
Track history (hours):
 
Tides and Currents Weather Stations Pressure Air Temp Water Temp Dewpoint Dewpoint Depression Visibility Wind Speed Wind Dir Waves Ship Positions

Drifting buoy 52514

Last reported at 2014-Oct-30 08:00 UTC. Time now 2014-Oct-30 12:15 UTC.
Position N 24°42' E 132°33'.

Water temperature 26.5 ° C

Date/timePositionNaut miles runAvg speedWind from/ knotsBaromVisibWave heightAir tempDewpointWater temp
2014-Oct-30 08:00N 24°42' E 132°33'1 0.6 26.5
2014-Oct-30 07:00N 24°41' E 132°33'1 0.6 26.5
2014-Oct-30 05:00N 24°42' E 132°31'1 0.2 26.6
2014-Oct-29 23:00N 24°43' E 132°30'1 0.6 26.5
2014-Oct-29 21:00N 24°44' E 132°31'1 0.6 26.5
2014-Oct-29 20:00N 24°44' E 132°30'0 0.0 26.5
2014-Oct-29 19:00N 24°44' E 132°30'2 0.9 26.5
2014-Oct-29 17:00N 24°46' E 132°30'0 0.0 26.5
2014-Oct-29 16:00N 24°46' E 132°30'5 1.3 26.5
2014-Oct-29 12:00N 24°50' E 132°26'0 0.5 25.1
2014-Oct-29 11:00N 24°50' E 132°25'5 0.7 25.1
2014-Oct-29 03:00N 24°53' E 132°20'2 0.8 18.0
2014-Oct-29 01:00N 24°55' E 132°20'0 0.0 17.9
2014-Oct-29 00:00N 24°55' E 132°20'0 0.0 18.1
2014-Oct-28 22:00N 24°55' E 132°20'0 0.0 23.2
2014-Oct-28 21:00N 24°55' E 132°20'3 0.6 23.4
2014-Oct-28 16:00N 24°56' E 132°17'3 0.9 25.7
2014-Oct-28 12:00N 24°57' E 132°13'2 0.6 26.4
2014-Oct-28 08:00N 24°59' E 132°11'2 1.5 26.5
2014-Oct-28 07:00N 24°59' E 132°09'0 0.0 26.7
2014-Oct-28 05:00N 24°59' E 132°09'2 0.8 26.7
2014-Oct-28 03:00N 24°59' E 132°08'4 0.6 26.7
2014-Oct-27 20:00N 24°60' E 132°03'2 0.8 26.7
2014-Oct-27 18:00N 24°59' E 132°02'0 0.5 26.7
2014-Oct-27 17:00N 24°59' E 132°01'0 0.0 26.8
2014-Oct-27 16:00N 24°59' E 132°01'0 0.0 26.8
2014-Oct-27 15:00N 24°59' E 132°01'4 1.0 26.8
2014-Oct-27 11:00N 25°00' E 131°57'1 0.3 27.0
2014-Oct-27 08:00N 25°00' E 131°56'2 2.2 27.1
2014-Oct-27 07:00N 24°60' E 131°54'0 0.0 27.1
2014-Oct-27 05:00N 24°60' E 131°54'1 0.6 27.4
2014-Oct-27 04:00N 24°59' E 131°54'5 0.7 27.5
2014-Oct-26 21:00N 24°60' E 131°49'1 0.8 26.8
2014-Oct-26 20:00N 24°59' E 131°48'1 1.4 26.7
2014-Oct-26 19:00N 24°59' E 131°46'0 0.0 26.7
2014-Oct-26 18:00N 24°59' E 131°46'1 0.6 26.7
2014-Oct-26 16:00N 24°58' E 131°46'0 0.0 26.7
2014-Oct-26 15:00N 24°58' E 131°46'2 0.9 26.7
2014-Oct-26 13:00N 24°56' E 131°46'0 0.1 26.8
2014-Oct-26 11:00N 24°56' E 131°46'1 0.9 26.8
2014-Oct-26 10:00N 24°56' E 131°45'1 0.3 26.8
2014-Oct-26 08:00N 24°56' E 131°45'1 0.6 26.9
2014-Oct-26 07:00N 24°56' E 131°44'0 0.0 27.0
2014-Oct-26 06:00N 24°56' E 131°44'0 0.4 27.1
2014-Oct-26 05:00N 24°56' E 131°44'0 0.4 26.9
2014-Oct-26 04:00N 24°55' E 131°44'0 0.1 26.9
2014-Oct-26 01:00N 24°55' E 131°44'1 0.2 26.7
2014-Oct-25 21:00N 24°55' E 131°43'0 0.4 26.6
2014-Oct-25 20:00N 24°55' E 131°43'1 0.7 26.6
2014-Oct-25 19:00N 24°55' E 131°42'1 0.3 26.6
2014-Oct-25 16:00N 24°54' E 131°42'3 1.0 26.7
2014-Oct-25 13:00N 24°51' E 131°41'1 0.8 26.7
2014-Oct-25 12:00N 24°51' E 131°42'0 0.0 26.7
2014-Oct-25 11:00N 24°51' E 131°42'1 0.6 26.7
2014-Oct-25 09:00N 24°50' E 131°41'0 0.4 26.8
2014-Oct-25 08:00N 24°50' E 131°41'1 0.6 26.8
2014-Oct-25 06:00N 24°49' E 131°41'1 1.3 26.9
2014-Oct-25 05:00N 24°48' E 131°42'0 0.4 26.9
2014-Oct-25 04:00N 24°48' E 131°42'2 1.1 26.9
2014-Oct-25 02:00N 24°47' E 131°44'0 0.1 26.8
2014-Oct-25 01:00N 24°47' E 131°44'0 0.0 26.7
2014-Oct-25 00:00N 24°47' E 131°44'1 0.4 26.7
2014-Oct-24 22:00N 24°46' E 131°43'0 0.0 26.6
2014-Oct-24 21:00N 24°46' E 131°43'1 0.6 26.7
2014-Oct-24 19:00N 24°46' E 131°42'0 0.1 26.7
2014-Oct-24 18:00N 24°46' E 131°42'1 1.4 26.7
2014-Oct-24 17:00N 24°45' E 131°41'3 0.5 26.7
2014-Oct-24 12:00N 24°43' E 131°40'1 0.8 26.8
2014-Oct-24 11:00N 24°42' E 131°41'1 0.3 26.8
2014-Oct-24 09:00N 24°42' E 131°41'0 0.4 26.9
2014-Oct-24 08:00N 24°42' E 131°41'1 0.6 26.9
2014-Oct-24 06:00N 24°40' E 131°41'2 0.9 26.9
2014-Oct-24 04:00N 24°42' E 131°42'2 0.5 26.9
2014-Oct-24 00:00N 24°40' E 131°43'1 0.4 26.8
2014-Oct-23 20:00N 24°39' E 131°42'1 0.9 26.7
2014-Oct-23 19:00N 24°38' E 131°41'0 0.0 26.7
2014-Oct-23 18:00N 24°38' E 131°41'0 0.1 26.7
2014-Oct-23 17:00N 24°39' E 131°41'2 0.3 26.7
2014-Oct-23 12:00N 24°38' E 131°42'0 0.0 26.8
2014-Oct-23 11:00N 24°38' E 131°42'0 0.0 26.9
2014-Oct-23 10:00N 24°38' E 131°42'3 1.3 27.0
2014-Oct-23 08:00N 24°35' E 131°43'1 0.4 27.0
2014-Oct-23 04:00N 24°34' E 131°43'1 0.6 27.0
2014-Oct-23 02:00N 24°33' E 131°44'0 0.0 27.0
2014-Oct-23 01:00N 24°33' E 131°44'1 1.0 26.9
2014-Oct-23 00:00N 24°33' E 131°43'0 0.0 26.9
2014-Oct-22 23:00N 24°33' E 131°43'0 0.0 26.8
2014-Oct-22 22:00N 24°33' E 131°43'0 0.5 26.8
2014-Oct-22 21:00N 24°33' E 131°43'0 0.0 26.8
2014-Oct-22 20:00N 24°33' E 131°43'0 0.4 26.8
2014-Oct-22 19:00N 24°33' E 131°43'1 0.5 26.9
2014-Oct-22 16:00N 24°31' E 131°42'3 0.7 26.9
2014-Oct-22 11:00N 24°29' E 131°40'0 0.2 27.1
2014-Oct-22 09:00N 24°29' E 131°39'1 0.8 27.2
2014-Oct-22 08:00N 24°28' E 131°39'0 0.3 27.7
2014-Oct-22 07:00N 24°28' E 131°39'0 0.0 28.0
2014-Oct-22 06:00N 24°28' E 131°39'3 1.5 27.9
2014-Oct-22 04:00N 24°25' E 131°40'0 0.1 27.5
2014-Oct-22 02:00N 24°25' E 131°40'0 0.0 27.0
2014-Oct-22 01:00N 24°25' E 131°40'0 0.4 26.8
2014-Oct-22 00:00N 24°25' E 131°40'0 0.0 26.7
2014-Oct-21 23:00N 24°25' E 131°40'2 0.5 26.6
2014-Oct-21 20:00N 24°25' E 131°38'0 0.2 26.7
2014-Oct-21 19:00N 24°25' E 131°38'5 2.4 26.7
2014-Oct-21 17:00N 24°22' E 131°34'0 0.0 26.7
2014-Oct-21 16:00N 24°22' E 131°34'0 0.0 26.7
2014-Oct-21 13:00N 24°22' E 131°34'1 0.9 26.7
2014-Oct-21 12:00N 24°22' E 131°33'1 0.6 26.7
2014-Oct-21 11:00N 24°22' E 131°32'1 0.5 26.9
2014-Oct-21 09:00N 24°21' E 131°33'1 0.6 27.0
2014-Oct-21 08:00N 24°20' E 131°32'2 0.8 27.1
2014-Oct-21 05:00N 24°19' E 131°34'3 0.7 27.5
2014-Oct-21 01:00N 24°17' E 131°32'1 1.1 26.7
2014-Oct-21 00:00N 24°18' E 131°31'1 0.5 26.6
2014-Oct-20 23:00N 24°18' E 131°31'0 0.0 26.5
2014-Oct-20 22:00N 24°18' E 131°31'0 0.2 26.5
2014-Oct-20 20:00N 24°18' E 131°30'1 0.5 26.6
2014-Oct-20 19:00N 24°18' E 131°30'2 1.0 26.7
2014-Oct-20 17:00N 24°18' E 131°28'0 0.0 26.7
2014-Oct-20 16:00N 24°18' E 131°28'6 1.4 26.7
2014-Oct-20 12:00N 24°15' E 131°22'1 0.8 26.4
2014-Oct-20 11:00N 24°15' E 131°21'1 1.1 26.4
2014-Oct-20 10:00N 24°15' E 131°20'0 0.0 26.4
2014-Oct-20 09:00N 24°15' E 131°20'1 0.7 26.4
2014-Oct-20 08:00N 24°14' E 131°20'   26.5

Dump ship's entire track history